sensor_id;sensor_type;location;lat;lon;timestamp;P1;durP1;ratioP1;P2;durP2;ratioP2
15667;SDS011;7934;48.710;9.024;2024-02-21T00:00:54;11.97;;;4.27;;
15667;SDS011;7934;48.710;9.024;2024-02-21T00:03:21;11.77;;;4.47;;
15667;SDS011;7934;48.710;9.024;2024-02-21T00:05:53;9.83;;;4.43;;
15667;SDS011;7934;48.710;9.024;2024-02-21T00:08:20;13.77;;;5.10;;
15667;SDS011;7934;48.710;9.024;2024-02-21T00:22:40;12.73;;;4.57;;
15667;SDS011;7934;48.710;9.024;2024-02-21T00:25:21;11.27;;;5.23;;
15667;SDS011;7934;48.710;9.024;2024-02-21T00:28:22;12.03;;;4.93;;
15667;SDS011;7934;48.710;9.024;2024-02-21T00:31:04;18.87;;;4.67;;
15667;SDS011;7934;48.710;9.024;2024-02-21T00:33:32;9.67;;;4.67;;
15667;SDS011;7934;48.710;9.024;2024-02-21T00:36:13;15.80;;;5.13;;
15667;SDS011;7934;48.710;9.024;2024-02-21T01:08:30;16.50;;;5.20;;
15667;SDS011;7934;48.710;9.024;2024-02-21T01:10:59;12.27;;;4.97;;
15667;SDS011;7934;48.710;9.024;2024-02-21T01:13:27;15.43;;;5.07;;
15667;SDS011;7934;48.710;9.024;2024-02-21T01:16:01;13.73;;;4.77;;
15667;SDS011;7934;48.710;9.024;2024-02-21T01:18:43;12.17;;;4.73;;
15667;SDS011;7934;48.710;9.024;2024-02-21T01:21:11;7.83;;;4.27;;
15667;SDS011;7934;48.710;9.024;2024-02-21T01:23:40;10.07;;;4.00;;
15667;SDS011;7934;48.710;9.024;2024-02-21T01:26:08;17.03;;;5.50;;
15667;SDS011;7934;48.710;9.024;2024-02-21T01:28:49;10.60;;;4.90;;
15667;SDS011;7934;48.710;9.024;2024-02-21T01:31:18;7.63;;;3.67;;
15667;SDS011;7934;48.710;9.024;2024-02-21T01:33:49;9.87;;;4.47;;
15667;SDS011;7934;48.710;9.024;2024-02-21T01:36:17;13.10;;;4.13;;
15667;SDS011;7934;48.710;9.024;2024-02-21T01:39:08;9.80;;;3.80;;
15667;SDS011;7934;48.710;9.024;2024-02-21T01:41:36;12.53;;;3.97;;
15667;SDS011;7934;48.710;9.024;2024-02-21T01:44:05;8.77;;;3.50;;
15667;SDS011;7934;48.710;9.024;2024-02-21T01:46:32;6.03;;;3.97;;
15667;SDS011;7934;48.710;9.024;2024-02-21T01:49:03;8.03;;;3.63;;
15667;SDS011;7934;48.710;9.024;2024-02-21T01:51:33;9.90;;;3.70;;
15667;SDS011;7934;48.710;9.024;2024-02-21T01:54:01;7.23;;;3.70;;
15667;SDS011;7934;48.710;9.024;2024-02-21T01:56:40;9.17;;;3.93;;
15667;SDS011;7934;48.710;9.024;2024-02-21T01:59:21;10.50;;;3.57;;
15667;SDS011;7934;48.710;9.024;2024-02-21T02:02:02;9.57;;;3.23;;
15667;SDS011;7934;48.710;9.024;2024-02-21T02:04:30;16.43;;;3.87;;
15667;SDS011;7934;48.710;9.024;2024-02-21T02:06:57;11.87;;;3.27;;
15667;SDS011;7934;48.710;9.024;2024-02-21T02:09:27;10.50;;;3.63;;
15667;SDS011;7934;48.710;9.024;2024-02-21T02:12:11;9.60;;;3.33;;
15667;SDS011;7934;48.710;9.024;2024-02-21T02:14:57;10.03;;;3.27;;
15667;SDS011;7934;48.710;9.024;2024-02-21T02:17:25;9.73;;;3.23;;
15667;SDS011;7934;48.710;9.024;2024-02-21T02:19:52;9.60;;;3.07;;
15667;SDS011;7934;48.710;9.024;2024-02-21T02:22:21;8.90;;;3.30;;
15667;SDS011;7934;48.710;9.024;2024-02-21T02:24:52;12.97;;;4.40;;
15667;SDS011;7934;48.710;9.024;2024-02-21T02:27:40;8.77;;;3.50;;
15667;SDS011;7934;48.710;9.024;2024-02-21T02:30:11;10.63;;;3.37;;
15667;SDS011;7934;48.710;9.024;2024-02-21T02:32:38;11.03;;;3.27;;
15667;SDS011;7934;48.710;9.024;2024-02-21T02:35:07;9.10;;;3.33;;
15667;SDS011;7934;48.710;9.024;2024-02-21T02:37:35;7.90;;;3.13;;
15667;SDS011;7934;48.710;9.024;2024-02-21T02:40:08;6.37;;;3.70;;
15667;SDS011;7934;48.710;9.024;2024-02-21T02:42:45;7.37;;;3.67;;
15667;SDS011;7934;48.710;9.024;2024-02-21T02:45:20;10.70;;;3.60;;
15667;SDS011;7934;48.710;9.024;2024-02-21T02:47:52;11.23;;;3.10;;
15667;SDS011;7934;48.710;9.024;2024-02-21T02:50:22;11.68;;;4.00;;
15667;SDS011;7934;48.710;9.024;2024-02-21T02:52:51;11.70;;;3.87;;
15667;SDS011;7934;48.710;9.024;2024-02-21T02:55:32;9.37;;;3.87;;
15667;SDS011;7934;48.710;9.024;2024-02-21T02:58:10;11.67;;;3.50;;
15667;SDS011;7934;48.710;9.024;2024-02-21T03:00:38;9.27;;;3.63;;
15667;SDS011;7934;48.710;9.024;2024-02-21T03:03:20;4.20;;;3.33;;
15667;SDS011;7934;48.710;9.024;2024-02-21T03:06:06;7.93;;;3.63;;
15667;SDS011;7934;48.710;9.024;2024-02-21T03:09:02;9.43;;;3.90;;
15667;SDS011;7934;48.710;9.024;2024-02-21T03:11:38;7.17;;;3.70;;
15667;SDS011;7934;48.710;9.024;2024-02-21T03:14:09;10.90;;;3.60;;
15667;SDS011;7934;48.710;9.024;2024-02-21T03:16:39;9.73;;;3.60;;
15667;SDS011;7934;48.710;9.024;2024-02-21T03:19:19;6.83;;;3.53;;
15667;SDS011;7934;48.710;9.024;2024-02-21T03:22:03;12.07;;;3.30;;
15667;SDS011;7934;48.710;9.024;2024-02-21T03:24:41;7.00;;;3.40;;
15667;SDS011;7934;48.710;9.024;2024-02-21T03:27:13;10.37;;;4.43;;
15667;SDS011;7934;48.710;9.024;2024-02-21T03:29:54;10.03;;;3.60;;
15667;SDS011;7934;48.710;9.024;2024-02-21T03:32:36;9.10;;;4.27;;
15667;SDS011;7934;48.710;9.024;2024-02-21T03:35:17;14.10;;;4.40;;
15667;SDS011;7934;48.710;9.024;2024-02-21T03:37:45;11.03;;;4.43;;
15667;SDS011;7934;48.710;9.024;2024-02-21T03:40:13;10.83;;;4.07;;
15667;SDS011;7934;48.710;9.024;2024-02-21T03:45:33;10.03;;;4.10;;
15667;SDS011;7934;48.710;9.024;2024-02-21T03:48:14;10.30;;;3.77;;
15667;SDS011;7934;48.710;9.024;2024-02-21T03:51:15;12.63;;;3.80;;
15667;SDS011;7934;48.710;9.024;2024-02-21T03:53:44;12.53;;;3.80;;
15667;SDS011;7934;48.710;9.024;2024-02-21T03:56:11;9.30;;;4.50;;
15667;SDS011;7934;48.710;9.024;2024-02-21T03:58:39;7.70;;;3.73;;
15667;SDS011;7934;48.710;9.024;2024-02-21T04:03:53;13.23;;;3.90;;
15667;SDS011;7934;48.710;9.024;2024-02-21T04:06:24;8.73;;;3.67;;
15667;SDS011;7934;48.710;9.024;2024-02-21T04:08:52;8.57;;;3.87;;
15667;SDS011;7934;48.710;9.024;2024-02-21T04:11:33;14.67;;;4.30;;
15667;SDS011;7934;48.710;9.024;2024-02-21T04:14:14;5.43;;;3.53;;
15667;SDS011;7934;48.710;9.024;2024-02-21T04:16:56;10.10;;;3.57;;
15667;SDS011;7934;48.710;9.024;2024-02-21T04:22:23;15.17;;;4.20;;
15667;SDS011;7934;48.710;9.024;2024-02-21T04:24:50;13.53;;;3.70;;
15667;SDS011;7934;48.710;9.024;2024-02-21T04:27:17;8.17;;;3.73;;
15667;SDS011;7934;48.710;9.024;2024-02-21T04:29:45;7.40;;;3.57;;
15667;SDS011;7934;48.710;9.024;2024-02-21T04:32:13;5.97;;;3.27;;
15667;SDS011;7934;48.710;9.024;2024-02-21T04:34:41;10.13;;;3.80;;
15667;SDS011;7934;48.710;9.024;2024-02-21T04:40:10;6.87;;;3.27;;
15667;SDS011;7934;48.710;9.024;2024-02-21T04:42:51;7.07;;;3.93;;
15667;SDS011;7934;48.710;9.024;2024-02-21T04:45:33;8.10;;;3.67;;
15667;SDS011;7934;48.710;9.024;2024-02-21T04:48:15;9.27;;;3.10;;
15667;SDS011;7934;48.710;9.024;2024-02-21T04:51:16;8.83;;;3.37;;
15667;SDS011;7934;48.710;9.024;2024-02-21T04:53:45;8.60;;;3.07;;
15667;SDS011;7934;48.710;9.024;2024-02-21T04:56:22;8.37;;;3.60;;
15667;SDS011;7934;48.710;9.024;2024-02-21T04:58:50;11.47;;;4.00;;
15667;SDS011;7934;48.710;9.024;2024-02-21T05:01:19;7.40;;;3.33;;
15667;SDS011;7934;48.710;9.024;2024-02-21T05:03:50;4.70;;;3.30;;
15667;SDS011;7934;48.710;9.024;2024-02-21T05:06:31;10.83;;;3.63;;
15667;SDS011;7934;48.710;9.024;2024-02-21T05:09:12;8.80;;;3.90;;
15667;SDS011;7934;48.710;9.024;2024-02-21T05:41:03;10.77;;;3.50;;
15667;SDS011;7934;48.710;9.024;2024-02-21T05:43:31;5.30;;;3.53;;
15667;SDS011;7934;48.710;9.024;2024-02-21T05:46:00;4.90;;;3.07;;
15667;SDS011;7934;48.710;9.024;2024-02-21T05:48:29;7.50;;;3.40;;
15667;SDS011;7934;48.710;9.024;2024-02-21T05:50:56;7.97;;;3.17;;
15667;SDS011;7934;48.710;9.024;2024-02-21T05:53:37;7.63;;;3.10;;
15667;SDS011;7934;48.710;9.024;2024-02-21T05:59:23;11.47;;;3.13;;
15667;SDS011;7934;48.710;9.024;2024-02-21T06:01:56;11.10;;;4.07;;
15667;SDS011;7934;48.710;9.024;2024-02-21T06:04:23;9.40;;;3.30;;
15667;SDS011;7934;48.710;9.024;2024-02-21T06:06:58;10.57;;;3.30;;
15667;SDS011;7934;48.710;9.024;2024-02-21T06:09:25;7.53;;;3.20;;
15667;SDS011;7934;48.710;9.024;2024-02-21T06:11:54;5.93;;;3.20;;
15667;SDS011;7934;48.710;9.024;2024-02-21T06:14:25;4.83;;;2.47;;
15667;SDS011;7934;48.710;9.024;2024-02-21T06:17:06;12.33;;;3.17;;
15667;SDS011;7934;48.710;9.024;2024-02-21T06:19:38;13.23;;;3.00;;
15667;SDS011;7934;48.710;9.024;2024-02-21T06:22:07;9.30;;;3.30;;
15667;SDS011;7934;48.710;9.024;2024-02-21T06:24:36;10.37;;;3.17;;
15667;SDS011;7934;48.710;9.024;2024-02-21T06:27:17;13.97;;;3.60;;
15667;SDS011;7934;48.710;9.024;2024-02-21T06:29:51;7.30;;;2.63;;
15667;SDS011;7934;48.710;9.024;2024-02-21T06:32:19;17.57;;;3.77;;
15667;SDS011;7934;48.710;9.024;2024-02-21T06:34:47;7.93;;;3.67;;
15667;SDS011;7934;48.710;9.024;2024-02-21T06:37:28;10.77;;;3.30;;
15667;SDS011;7934;48.710;9.024;2024-02-21T06:39:57;10.70;;;3.80;;
15667;SDS011;7934;48.710;9.024;2024-02-21T06:42:24;10.10;;;3.50;;
15667;SDS011;7934;48.710;9.024;2024-02-21T06:47:57;17.07;;;4.07;;
15667;SDS011;7934;48.710;9.024;2024-02-21T06:50:39;7.47;;;3.37;;
15667;SDS011;7934;48.710;9.024;2024-02-21T06:53:20;13.40;;;4.73;;
15667;SDS011;7934;48.710;9.024;2024-02-21T06:55:47;21.17;;;4.40;;
15667;SDS011;7934;48.710;9.024;2024-02-21T06:58:15;11.10;;;3.97;;
15667;SDS011;7934;48.710;9.024;2024-02-21T07:00:43;6.67;;;4.13;;
15667;SDS011;7934;48.710;9.024;2024-02-21T07:03:21;10.23;;;3.30;;
15667;SDS011;7934;48.710;9.024;2024-02-21T07:05:56;10.87;;;3.83;;
15667;SDS011;7934;48.710;9.024;2024-02-21T07:08:24;9.07;;;3.60;;
15667;SDS011;7934;48.710;9.024;2024-02-21T07:10:51;14.37;;;4.20;;
15667;SDS011;7934;48.710;9.024;2024-02-21T07:13:19;5.60;;;2.93;;
15667;SDS011;7934;48.710;9.024;2024-02-21T07:15:48;6.40;;;3.00;;
15667;SDS011;7934;48.710;9.024;2024-02-21T07:18:20;18.17;;;7.97;;
15667;SDS011;7934;48.710;9.024;2024-02-21T07:20:50;20.70;;;4.70;;
15667;SDS011;7934;48.710;9.024;2024-02-21T07:23:31;15.27;;;3.60;;
15667;SDS011;7934;48.710;9.024;2024-02-21T07:25:59;5.93;;;3.20;;
15667;SDS011;7934;48.710;9.024;2024-02-21T07:28:26;17.60;;;3.43;;
15667;SDS011;7934;48.710;9.024;2024-02-21T07:31:07;7.47;;;3.50;;
15667;SDS011;7934;48.710;9.024;2024-02-21T07:36:46;6.93;;;2.70;;
15667;SDS011;7934;48.710;9.024;2024-02-21T07:39:13;6.93;;;3.23;;
15667;SDS011;7934;48.710;9.024;2024-02-21T07:41:41;8.70;;;3.00;;
15667;SDS011;7934;48.710;9.024;2024-02-21T07:44:11;7.13;;;2.80;;
15667;SDS011;7934;48.710;9.024;2024-02-21T07:46:40;4.23;;;2.70;;
15667;SDS011;7934;48.710;9.024;2024-02-21T07:49:08;4.13;;;3.10;;
15667;SDS011;7934;48.710;9.024;2024-02-21T07:54:34;10.77;;;3.00;;
15667;SDS011;7934;48.710;9.024;2024-02-21T07:57:03;8.33;;;3.10;;
15667;SDS011;7934;48.710;9.024;2024-02-21T07:59:44;6.87;;;3.23;;
15667;SDS011;7934;48.710;9.024;2024-02-21T08:02:25;8.80;;;2.90;;
15667;SDS011;7934;48.710;9.024;2024-02-21T08:05:06;5.80;;;3.13;;
15667;SDS011;7934;48.710;9.024;2024-02-21T08:07:34;8.13;;;3.00;;
15667;SDS011;7934;48.710;9.024;2024-02-21T08:13:08;10.50;;;3.10;;
15667;SDS011;7934;48.710;9.024;2024-02-21T08:15:35;9.47;;;3.03;;
15667;SDS011;7934;48.710;9.024;2024-02-21T08:18:04;4.20;;;2.63;;
15667;SDS011;7934;48.710;9.024;2024-02-21T08:20:46;6.17;;;2.67;;
15667;SDS011;7934;48.710;9.024;2024-02-21T08:23:18;3.97;;;2.37;;
15667;SDS011;7934;48.710;9.024;2024-02-21T08:25:46;7.87;;;2.70;;
15667;SDS011;7934;48.710;9.024;2024-02-21T08:31:00;6.20;;;2.87;;
15667;SDS011;7934;48.710;9.024;2024-02-21T08:33:28;6.77;;;2.63;;
15667;SDS011;7934;48.710;9.024;2024-02-21T08:35:56;10.20;;;2.73;;
15667;SDS011;7934;48.710;9.024;2024-02-21T08:38:24;8.00;;;3.03;;
15667;SDS011;7934;48.710;9.024;2024-02-21T08:40:52;11.17;;;2.30;;
15667;SDS011;7934;48.710;9.024;2024-02-21T08:43:21;7.43;;;2.90;;
15667;SDS011;7934;48.710;9.024;2024-02-21T08:45:49;5.97;;;2.67;;
15667;SDS011;7934;48.710;9.024;2024-02-21T08:51:31;6.13;;;2.33;;
15667;SDS011;7934;48.710;9.024;2024-02-21T08:54:08;9.13;;;2.53;;
15667;SDS011;7934;48.710;9.024;2024-02-21T08:56:35;7.27;;;2.30;;
15667;SDS011;7934;48.710;9.024;2024-02-21T08:59:03;5.50;;;2.50;;
15667;SDS011;7934;48.710;9.024;2024-02-21T09:01:30;8.07;;;2.20;;
15667;SDS011;7934;48.710;9.024;2024-02-21T09:04:01;14.00;;;2.87;;
15667;SDS011;7934;48.710;9.024;2024-02-21T09:06:33;4.17;;;2.70;;
15667;SDS011;7934;48.710;9.024;2024-02-21T09:09:04;6.70;;;2.53;;
15667;SDS011;7934;48.710;9.024;2024-02-21T09:11:35;10.27;;;2.33;;
15667;SDS011;7934;48.710;9.024;2024-02-21T09:14:09;6.03;;;2.30;;
15667;SDS011;7934;48.710;9.024;2024-02-21T09:16:50;3.53;;;2.07;;
15667;SDS011;7934;48.710;9.024;2024-02-21T09:19:31;8.20;;;2.30;;
15667;SDS011;7934;48.710;9.024;2024-02-21T09:22:14;4.90;;;2.43;;
15667;SDS011;7934;48.710;9.024;2024-02-21T09:24:42;7.17;;;2.50;;
15667;SDS011;7934;48.710;9.024;2024-02-21T09:27:14;7.73;;;2.77;;
15667;SDS011;7934;48.710;9.024;2024-02-21T09:29:47;4.20;;;2.20;;
15667;SDS011;7934;48.710;9.024;2024-02-21T09:32:14;4.53;;;2.13;;
15667;SDS011;7934;48.710;9.024;2024-02-21T09:34:42;3.00;;;2.17;;
15667;SDS011;7934;48.710;9.024;2024-02-21T09:37:11;9.00;;;2.37;;
15667;SDS011;7934;48.710;9.024;2024-02-21T09:39:42;7.13;;;2.30;;
15667;SDS011;7934;48.710;9.024;2024-02-21T09:42:12;4.00;;;1.90;;
15667;SDS011;7934;48.710;9.024;2024-02-21T09:44:41;5.40;;;1.97;;
15667;SDS011;7934;48.710;9.024;2024-02-21T09:47:11;4.00;;;2.30;;
15667;SDS011;7934;48.710;9.024;2024-02-21T09:49:53;5.23;;;2.40;;
15667;SDS011;7934;48.710;9.024;2024-02-21T09:52:22;5.03;;;2.43;;
15667;SDS011;7934;48.710;9.024;2024-02-21T09:57:55;6.87;;;2.50;;
15667;SDS011;7934;48.710;9.024;2024-02-21T10:00:28;6.10;;;2.47;;
15667;SDS011;7934;48.710;9.024;2024-02-21T10:03:09;6.53;;;2.20;;
15667;SDS011;7934;48.710;9.024;2024-02-21T10:05:51;3.87;;;2.43;;
15667;SDS011;7934;48.710;9.024;2024-02-21T10:08:33;5.77;;;2.47;;
15667;SDS011;7934;48.710;9.024;2024-02-21T10:11:21;6.67;;;2.47;;
15667;SDS011;7934;48.710;9.024;2024-02-21T10:13:51;6.13;;;2.47;;
15667;SDS011;7934;48.710;9.024;2024-02-21T10:16:30;4.00;;;2.10;;
15667;SDS011;7934;48.710;9.024;2024-02-21T10:18:58;4.77;;;2.10;;
15667;SDS011;7934;48.710;9.024;2024-02-21T10:21:28;5.60;;;2.03;;
15667;SDS011;7934;48.710;9.024;2024-02-21T10:23:57;6.73;;;2.20;;
15667;SDS011;7934;48.710;9.024;2024-02-21T10:26:24;3.90;;;1.90;;
15667;SDS011;7934;48.710;9.024;2024-02-21T10:28:54;4.57;;;2.33;;
15667;SDS011;7934;48.710;9.024;2024-02-21T10:31:22;4.00;;;2.10;;
15667;SDS011;7934;48.710;9.024;2024-02-21T10:33:53;5.60;;;1.97;;
15667;SDS011;7934;48.710;9.024;2024-02-21T10:36:21;7.43;;;2.50;;
15667;SDS011;7934;48.710;9.024;2024-02-21T10:39:02;7.27;;;2.10;;
15667;SDS011;7934;48.710;9.024;2024-02-21T10:41:30;6.50;;;2.60;;
15667;SDS011;7934;48.710;9.024;2024-02-21T10:44:15;8.40;;;2.37;;
15667;SDS011;7934;48.710;9.024;2024-02-21T10:46:57;4.93;;;2.20;;
15667;SDS011;7934;48.710;9.024;2024-02-21T10:49:38;7.70;;;2.47;;
15667;SDS011;7934;48.710;9.024;2024-02-21T10:52:11;5.73;;;2.47;;
15667;SDS011;7934;48.710;9.024;2024-02-21T10:54:44;5.10;;;2.23;;
15667;SDS011;7934;48.710;9.024;2024-02-21T10:57:15;6.73;;;2.57;;
15667;SDS011;7934;48.710;9.024;2024-02-21T11:11:17;6.47;;;2.10;;
15667;SDS011;7934;48.710;9.024;2024-02-21T11:14:04;2.93;;;2.00;;
15667;SDS011;7934;48.710;9.024;2024-02-21T11:16:36;5.30;;;2.57;;
15667;SDS011;7934;48.710;9.024;2024-02-21T11:19:07;5.10;;;2.00;;
15667;SDS011;7934;48.710;9.024;2024-02-21T11:21:36;5.17;;;2.17;;
15667;SDS011;7934;48.710;9.024;2024-02-21T11:24:04;4.30;;;1.93;;
15667;SDS011;7934;48.710;9.024;2024-02-21T11:29:44;3.57;;;1.90;;
15667;SDS011;7934;48.710;9.024;2024-02-21T11:32:16;5.13;;;1.97;;
15667;SDS011;7934;48.710;9.024;2024-02-21T11:34:58;5.23;;;2.13;;
15667;SDS011;7934;48.710;9.024;2024-02-21T11:37:26;4.37;;;1.77;;
15667;SDS011;7934;48.710;9.024;2024-02-21T11:40:09;2.07;;;1.87;;
15667;SDS011;7934;48.710;9.024;2024-02-21T11:43:10;5.03;;;1.80;;
15667;SDS011;7934;48.710;9.024;2024-02-21T11:45:41;5.57;;;1.83;;
15667;SDS011;7934;48.710;9.024;2024-02-21T11:48:08;2.80;;;1.80;;
15667;SDS011;7934;48.710;9.024;2024-02-21T11:50:36;3.30;;;2.10;;
15667;SDS011;7934;48.710;9.024;2024-02-21T11:53:17;7.77;;;1.70;;
15667;SDS011;7934;48.710;9.024;2024-02-21T11:55:59;5.83;;;1.90;;
15667;SDS011;7934;48.710;9.024;2024-02-21T11:58:26;6.63;;;2.53;;
15667;SDS011;7934;48.710;9.024;2024-02-21T12:03:44;5.90;;;1.90;;
15667;SDS011;7934;48.710;9.024;2024-02-21T12:06:15;2.73;;;1.60;;
15667;SDS011;7934;48.710;9.024;2024-02-21T12:08:48;2.37;;;1.47;;
15667;SDS011;7934;48.710;9.024;2024-02-21T12:11:33;5.27;;;2.00;;
15667;SDS011;7934;48.710;9.024;2024-02-21T12:14:34;2.93;;;1.70;;
15667;SDS011;7934;48.710;9.024;2024-02-21T12:17:16;4.33;;;2.30;;
15667;SDS011;7934;48.710;9.024;2024-02-21T12:19:45;1.83;;;1.67;;
15667;SDS011;7934;48.710;9.024;2024-02-21T12:22:26;1.43;;;1.20;;
15667;SDS011;7934;48.710;9.024;2024-02-21T12:24:57;6.07;;;1.60;;
15667;SDS011;7934;48.710;9.024;2024-02-21T12:27:28;2.10;;;1.53;;
15667;SDS011;7934;48.710;9.024;2024-02-21T12:29:57;1.77;;;1.37;;
15667;SDS011;7934;48.710;9.024;2024-02-21T12:32:25;1.87;;;1.43;;
15667;SDS011;7934;48.710;9.024;2024-02-21T12:34:58;4.43;;;1.60;;
15667;SDS011;7934;48.710;9.024;2024-02-21T12:37:25;2.13;;;1.43;;
15667;SDS011;7934;48.710;9.024;2024-02-21T12:39:54;3.60;;;1.47;;
15667;SDS011;7934;48.710;9.024;2024-02-21T12:42:23;3.73;;;1.33;;
15667;SDS011;7934;48.710;9.024;2024-02-21T12:44:50;3.37;;;1.70;;
15667;SDS011;7934;48.710;9.024;2024-02-21T12:47:19;4.07;;;1.40;;
15667;SDS011;7934;48.710;9.024;2024-02-21T12:49:50;2.27;;;1.40;;
15667;SDS011;7934;48.710;9.024;2024-02-21T12:55:18;2.87;;;2.40;;
15667;SDS011;7934;48.710;9.024;2024-02-21T12:58:02;3.57;;;1.60;;
15667;SDS011;7934;48.710;9.024;2024-02-21T13:00:32;1.60;;;1.40;;
15667;SDS011;7934;48.710;9.024;2024-02-21T13:03:00;3.60;;;1.30;;
15667;SDS011;7934;48.710;9.024;2024-02-21T13:05:32;4.13;;;1.47;;
15667;SDS011;7934;48.710;9.024;2024-02-21T13:07:59;3.00;;;1.60;;
15667;SDS011;7934;48.710;9.024;2024-02-21T13:10:29;4.07;;;1.00;;
15667;SDS011;7934;48.710;9.024;2024-02-21T13:13:02;1.60;;;1.20;;
15667;SDS011;7934;48.710;9.024;2024-02-21T13:15:43;2.37;;;1.17;;
15667;SDS011;7934;48.710;9.024;2024-02-21T13:18:14;5.93;;;1.70;;
15667;SDS011;7934;48.710;9.024;2024-02-21T13:20:43;5.03;;;1.20;;
15667;SDS011;7934;48.710;9.024;2024-02-21T13:23:13;3.23;;;1.17;;
15667;SDS011;7934;48.710;9.024;2024-02-21T13:28:24;2.00;;;1.30;;
15667;SDS011;7934;48.710;9.024;2024-02-21T13:31:05;3.03;;;1.13;;
15667;SDS011;7934;48.710;9.024;2024-02-21T13:33:35;2.23;;;1.17;;
15667;SDS011;7934;48.710;9.024;2024-02-21T13:36:04;1.60;;;1.10;;
15667;SDS011;7934;48.710;9.024;2024-02-21T13:38:36;1.43;;;1.10;;
15667;SDS011;7934;48.710;9.024;2024-02-21T13:41:08;2.37;;;1.27;;
15667;SDS011;7934;48.710;9.024;2024-02-21T13:43:38;1.47;;;1.03;;
15667;SDS011;7934;48.710;9.024;2024-02-21T13:46:05;2.93;;;1.20;;
15667;SDS011;7934;48.710;9.024;2024-02-21T13:48:34;4.93;;;1.30;;
15667;SDS011;7934;48.710;9.024;2024-02-21T13:51:02;2.17;;;1.10;;
15667;SDS011;7934;48.710;9.024;2024-02-21T13:53:29;1.00;;;1.00;;
15667;SDS011;7934;48.710;9.024;2024-02-21T13:55:56;5.13;;;2.07;;
15667;SDS011;7934;48.710;9.024;2024-02-21T13:58:23;4.80;;;1.43;;
15667;SDS011;7934;48.710;9.024;2024-02-21T14:00:52;4.43;;;1.33;;
15667;SDS011;7934;48.710;9.024;2024-02-21T14:03:19;1.57;;;1.20;;
15667;SDS011;7934;48.710;9.024;2024-02-21T14:05:46;3.03;;;0.93;;
15667;SDS011;7934;48.710;9.024;2024-02-21T14:08:14;2.80;;;1.20;;
15667;SDS011;7934;48.710;9.024;2024-02-21T14:10:41;4.00;;;1.40;;
15667;SDS011;7934;48.710;9.024;2024-02-21T14:13:14;2.67;;;1.40;;
15667;SDS011;7934;48.710;9.024;2024-02-21T14:15:43;2.70;;;1.33;;
15667;SDS011;7934;48.710;9.024;2024-02-21T14:18:14;1.20;;;1.10;;
15667;SDS011;7934;48.710;9.024;2024-02-21T14:20:41;2.43;;;1.53;;
15667;SDS011;7934;48.710;9.024;2024-02-21T14:23:08;2.20;;;1.20;;
15667;SDS011;7934;48.710;9.024;2024-02-21T14:25:35;2.03;;;1.17;;
15667;SDS011;7934;48.710;9.024;2024-02-21T14:28:04;1.00;;;1.00;;
15667;SDS011;7934;48.710;9.024;2024-02-21T14:30:31;1.43;;;1.20;;
15667;SDS011;7934;48.710;9.024;2024-02-21T14:32:59;1.90;;;1.17;;
15667;SDS011;7934;48.710;9.024;2024-02-21T14:35:27;1.47;;;0.90;;
15667;SDS011;7934;48.710;9.024;2024-02-21T14:37:54;2.43;;;1.20;;
15667;SDS011;7934;48.710;9.024;2024-02-21T14:40:22;3.50;;;2.03;;
15667;SDS011;7934;48.710;9.024;2024-02-21T14:42:50;1.53;;;1.43;;
15667;SDS011;7934;48.710;9.024;2024-02-21T14:45:17;1.10;;;1.00;;
15667;SDS011;7934;48.710;9.024;2024-02-21T14:47:45;1.60;;;1.40;;
15667;SDS011;7934;48.710;9.024;2024-02-21T14:50:12;1.93;;;0.97;;
15667;SDS011;7934;48.710;9.024;2024-02-21T14:52:40;1.63;;;0.93;;
15667;SDS011;7934;48.710;9.024;2024-02-21T14:55:09;1.60;;;1.20;;
15667;SDS011;7934;48.710;9.024;2024-02-21T14:57:37;11.77;;;1.37;;
15667;SDS011;7934;48.710;9.024;2024-02-21T15:00:06;2.13;;;1.07;;
15667;SDS011;7934;48.710;9.024;2024-02-21T15:02:34;3.13;;;1.50;;
15667;SDS011;7934;48.710;9.024;2024-02-21T15:05:01;3.47;;;1.60;;
15667;SDS011;7934;48.710;9.024;2024-02-21T15:07:28;4.10;;;1.80;;
15667;SDS011;7934;48.710;9.024;2024-02-21T15:09:57;2.37;;;1.40;;
15667;SDS011;7934;48.710;9.024;2024-02-21T15:12:24;1.47;;;1.20;;
15667;SDS011;7934;48.710;9.024;2024-02-21T15:14:51;3.80;;;1.17;;
15667;SDS011;7934;48.710;9.024;2024-02-21T15:17:19;2.80;;;1.60;;
15667;SDS011;7934;48.710;9.024;2024-02-21T15:19:46;2.27;;;1.47;;
15667;SDS011;7934;48.710;9.024;2024-02-21T15:22:13;3.20;;;1.90;;
15667;SDS011;7934;48.710;9.024;2024-02-21T15:24:45;5.90;;;1.70;;
15667;SDS011;7934;48.710;9.024;2024-02-21T15:27:17;2.50;;;1.40;;
15667;SDS011;7934;48.710;9.024;2024-02-21T15:29:45;2.10;;;1.23;;
15667;SDS011;7934;48.710;9.024;2024-02-21T15:32:12;3.27;;;1.67;;
15667;SDS011;7934;48.710;9.024;2024-02-21T15:34:39;1.83;;;1.43;;
15667;SDS011;7934;48.710;9.024;2024-02-21T15:37:06;2.40;;;1.33;;
15667;SDS011;7934;48.710;9.024;2024-02-21T15:39:35;2.77;;;1.60;;
15667;SDS011;7934;48.710;9.024;2024-02-21T15:42:02;1.80;;;1.70;;
15667;SDS011;7934;48.710;9.024;2024-02-21T15:44:31;2.77;;;1.63;;
15667;SDS011;7934;48.710;9.024;2024-02-21T15:46:58;7.50;;;2.63;;
15667;SDS011;7934;48.710;9.024;2024-02-21T15:49:28;1.70;;;1.60;;
15667;SDS011;7934;48.710;9.024;2024-02-21T15:51:55;1.53;;;1.43;;
15667;SDS011;7934;48.710;9.024;2024-02-21T15:54:22;3.60;;;1.60;;
15667;SDS011;7934;48.710;9.024;2024-02-21T15:56:52;2.90;;;1.87;;
15667;SDS011;7934;48.710;9.024;2024-02-21T15:59:21;3.80;;;2.10;;
15667;SDS011;7934;48.710;9.024;2024-02-21T16:01:49;2.07;;;1.83;;
15667;SDS011;7934;48.710;9.024;2024-02-21T16:04:16;2.40;;;1.60;;
15667;SDS011;7934;48.710;9.024;2024-02-21T16:06:44;2.60;;;1.90;;
15667;SDS011;7934;48.710;9.024;2024-02-21T16:09:16;7.23;;;2.20;;
15667;SDS011;7934;48.710;9.024;2024-02-21T16:11:43;2.90;;;1.90;;
15667;SDS011;7934;48.710;9.024;2024-02-21T16:14:11;2.63;;;1.90;;
15667;SDS011;7934;48.710;9.024;2024-02-21T16:16:38;3.00;;;2.03;;
15667;SDS011;7934;48.710;9.024;2024-02-21T16:19:07;5.30;;;2.27;;
15667;SDS011;7934;48.710;9.024;2024-02-21T16:21:34;2.10;;;1.90;;
15667;SDS011;7934;48.710;9.024;2024-02-21T16:24:01;7.23;;;2.43;;
15667;SDS011;7934;48.710;9.024;2024-02-21T16:26:29;4.03;;;1.80;;
15667;SDS011;7934;48.710;9.024;2024-02-21T16:28:56;3.67;;;1.80;;
15667;SDS011;7934;48.710;9.024;2024-02-21T16:31:23;2.57;;;2.10;;
15667;SDS011;7934;48.710;9.024;2024-02-21T16:33:50;2.87;;;1.50;;
15667;SDS011;7934;48.710;9.024;2024-02-21T16:36:22;5.87;;;2.60;;
15667;SDS011;7934;48.710;9.024;2024-02-21T16:38:49;6.57;;;1.70;;
15667;SDS011;7934;48.710;9.024;2024-02-21T16:41:17;4.40;;;1.90;;
15667;SDS011;7934;48.710;9.024;2024-02-21T16:43:44;2.90;;;1.93;;
15667;SDS011;7934;48.710;9.024;2024-02-21T16:46:12;3.83;;;2.00;;
15667;SDS011;7934;48.710;9.024;2024-02-21T16:48:40;5.23;;;2.13;;
15667;SDS011;7934;48.710;9.024;2024-02-21T16:51:07;3.10;;;2.00;;
15667;SDS011;7934;48.710;9.024;2024-02-21T16:53:36;2.20;;;1.70;;
15667;SDS011;7934;48.710;9.024;2024-02-21T16:56:03;4.67;;;1.83;;
15667;SDS011;7934;48.710;9.024;2024-02-21T16:58:31;1.95;;;1.85;;
15667;SDS011;7934;48.710;9.024;2024-02-21T17:01:01;1.90;;;1.80;;
15667;SDS011;7934;48.710;9.024;2024-02-21T17:03:30;2.20;;;1.60;;
15667;SDS011;7934;48.710;9.024;2024-02-21T17:05:58;2.80;;;2.03;;
15667;SDS011;7934;48.710;9.024;2024-02-21T17:08:25;2.03;;;1.83;;
15667;SDS011;7934;48.710;9.024;2024-02-21T17:10:54;2.23;;;1.77;;
15667;SDS011;7934;48.710;9.024;2024-02-21T17:13:21;1.97;;;1.80;;
15667;SDS011;7934;48.710;9.024;2024-02-21T17:15:49;2.33;;;1.50;;
15667;SDS011;7934;48.710;9.024;2024-02-21T17:18:16;5.05;;;2.20;;
15667;SDS011;7934;48.710;9.024;2024-02-21T17:20:43;2.50;;;2.08;;
15667;SDS011;7934;48.710;9.024;2024-02-21T17:23:13;1.87;;;1.77;;
15667;SDS011;7934;48.710;9.024;2024-02-21T17:25:40;3.00;;;2.00;;
15667;SDS011;7934;48.710;9.024;2024-02-21T17:28:08;3.53;;;2.00;;
15667;SDS011;7934;48.710;9.024;2024-02-21T17:30:36;3.47;;;1.77;;
15667;SDS011;7934;48.710;9.024;2024-02-21T17:33:03;2.63;;;1.80;;
15667;SDS011;7934;48.710;9.024;2024-02-21T17:35:32;2.83;;;1.77;;